Terminal Aerodrome Forecast
Issued by NWS Melbourne, FL

Home | Current Version | Previous Version | Text Only | Print | Product List | Glossary On
Versions: 1 2 3 4 5 6 7 8 9 10 11 12 13 14 15 16 17 18 19 20 21 22 23 24 25
000
FTUS42 KMLB 300300 AAA
TAFMCO
TAF AMD
KMCO 300310Z 3003/3024 27005KT P6SM FEW020 SCT250
     FM301400 32004KT P6SM FEW250
     FM302000 27006KT P6SM SCT050=

USA.gov is the U.S. government's official web portal to all federal, state and local government web resources and services.